Time;durP1;ratioP1;P1;durP2;ratioP2;P2;SDS_P1;SDS_P2;PMS_P1;PMS_P2;Temp;Humidity;BMP_temperature;BMP_pressure;BME280_temperature;BME280_humidity;BME280_pressure;Samples;Min_cycle;Max_cycle;Signal;HPM_P1;HPM_P2
2021/10/11 00:02:16;;;;;;;18.35;12.88;;;12.00;64.70;;;;;;5046377;28;20033;-67
2021/10/11 00:04:42;;;;;;;20.25;13.60;;;11.90;64.60;;;;;;5047574;28;20641;-67
2021/10/11 00:07:08;;;;;;;17.40;12.63;;;11.90;64.80;;;;;;5042777;28;20124;-67
2021/10/11 00:09:35;;;;;;;17.75;13.38;;;11.90;65.00;;;;;;5046554;28;20029;-67
2021/10/11 00:12:01;;;;;;;17.52;13.05;;;11.90;65.00;;;;;;5047462;28;20108;-67
2021/10/11 00:14:27;;;;;;;20.58;13.75;;;11.80;65.00;;;;;;5047977;28;20521;-67
2021/10/11 00:16:53;;;;;;;33.47;20.73;;;11.90;65.20;;;;;;5032161;28;20060;-67
2021/10/11 00:19:19;;;;;;;24.90;17.33;;;11.80;65.50;;;;;;5044490;28;20028;-66
2021/10/11 00:21:45;;;;;;;21.65;16.02;;;11.80;65.80;;;;;;5043147;28;20491;-66
2021/10/11 00:24:11;;;;;;;18.83;14.43;;;11.80;65.80;;;;;;5048554;28;20101;-66
2021/10/11 00:26:37;;;;;;;18.48;13.98;;;11.80;65.70;;;;;;5050711;28;20502;-66
2021/10/11 00:29:03;;;;;;;18.05;14.23;;;11.80;65.80;;;;;;5041414;28;20032;-66
2021/10/11 00:31:29;;;;;;;23.17;17.30;;;11.70;65.80;;;;;;5050405;28;20499;-66
2021/10/11 00:33:56;;;;;;;22.13;17.42;;;11.70;66.00;;;;;;5049588;28;20055;-67
2021/10/11 00:36:22;;;;;;;27.85;18.27;;;11.70;66.30;;;;;;5046124;28;20037;-66
2021/10/11 00:38:48;;;;;;;26.70;16.58;;;11.70;66.60;;;;;;5047123;28;20029;-66
2021/10/11 00:41:14;;;;;;;42.13;17.27;;;11.70;66.90;;;;;;5049666;28;20680;-66
2021/10/11 00:43:41;;;;;;;29.00;18.17;;;11.70;67.00;;;;;;5046658;28;20033;-66
2021/10/11 00:46:07;;;;;;;26.63;17.70;;;11.70;67.00;;;;;;5048227;28;20029;-66
2021/10/11 00:48:36;;;;;;;26.73;18.65;;;11.70;67.00;;;;;;5043685;28;20037;-66
2021/10/11 00:51:05;;;;;;;26.83;17.80;;;11.60;66.90;;;;;;5044317;28;20048;-66
2021/10/11 00:53:31;;;;;;;24.90;17.95;;;11.60;66.90;;;;;;5048363;28;20112;-66
2021/10/11 00:55:57;;;;;;;23.45;16.75;;;11.50;66.80;;;;;;5041297;28;20112;-66
2021/10/11 00:58:23;;;;;;;21.73;16.65;;;11.50;66.80;;;;;;5050237;28;20108;-66
2021/10/11 01:00:49;;;;;;;22.55;16.80;;;11.50;66.70;;;;;;5048492;28;20388;-66
2021/10/11 01:03:15;;;;;;;18.63;14.90;;;11.40;66.70;;;;;;5046681;28;20029;-66
2021/10/11 01:05:41;;;;;;;18.73;14.45;;;11.40;66.70;;;;;;5050167;28;20024;-66
2021/10/11 01:08:07;;;;;;;20.23;15.85;;;11.40;66.90;;;;;;5052995;28;20080;-66
2021/10/11 01:10:33;;;;;;;20.48;15.57;;;11.40;67.00;;;;;;5047255;28;20055;-66
2021/10/11 01:12:58;;;;;;;38.20;20.10;;;11.40;66.90;;;;;;5047634;28;20025;-66
2021/10/11 01:15:24;;;;;;;31.50;19.88;;;11.40;67.50;;;;;;5041861;28;20419;-66
2021/10/11 01:17:50;;;;;;;54.45;19.92;;;11.40;68.00;;;;;;5038108;28;20056;-66
2021/10/11 01:20:16;;;;;;;34.75;16.73;;;11.40;68.50;;;;;;5049009;28;20028;-66
2021/10/11 01:22:43;;;;;;;30.88;17.67;;;11.30;68.50;;;;;;5041866;28;20381;-66
2021/10/11 01:25:13;;;;;;;27.20;16.13;;;11.40;68.60;;;;;;5045900;28;20035;-66
2021/10/11 01:27:39;;;;;;;26.10;16.42;;;11.30;68.50;;;;;;5040526;28;20163;-66
2021/10/11 01:30:06;;;;;;;24.08;16.02;;;11.30;68.30;;;;;;5045982;28;20051;-66
2021/10/11 01:32:32;;;;;;;20.15;15.23;;;11.30;68.20;;;;;;5037149;28;20037;-66
2021/10/11 01:34:58;;;;;;;21.33;15.68;;;11.20;68.50;;;;;;5042450;28;20017;-66
2021/10/11 01:37:24;;;;;;;18.48;14.15;;;11.20;68.80;;;;;;5041173;28;20044;-66
2021/10/11 01:39:49;;;;;;;17.83;13.98;;;11.20;68.60;;;;;;5048122;28;20017;-67
2021/10/11 01:42:15;;;;;;;18.15;13.27;;;11.10;68.50;;;;;;5040211;28;20499;-67
2021/10/11 01:44:41;;;;;;;19.10;15.15;;;11.10;68.20;;;;;;5039652;28;20037;-67
2021/10/11 01:47:07;;;;;;;16.70;13.13;;;11.10;68.10;;;;;;5048711;28;20056;-67
2021/10/11 01:49:33;;;;;;;16.85;13.02;;;11.10;68.40;;;;;;5041959;28;20053;-67
2021/10/11 01:51:59;;;;;;;16.70;12.88;;;11.00;68.30;;;;;;5049304;28;20040;-67
2021/10/11 01:54:24;;;;;;;15.15;12.43;;;11.00;68.30;;;;;;5044080;28;20033;-66
2021/10/11 01:56:50;;;;;;;15.57;12.48;;;11.00;68.20;;;;;;5044174;28;20100;-66
2021/10/11 01:59:16;;;;;;;16.00;12.38;;;11.00;68.00;;;;;;5046645;28;20040;-67
2021/10/11 02:01:42;;;;;;;17.40;13.23;;;11.00;67.90;;;;;;5048500;28;20475;-67
2021/10/11 02:04:08;;;;;;;17.38;12.88;;;10.90;67.90;;;;;;5049031;28;20116;-66
2021/10/11 02:06:33;;;;;;;19.10;13.57;;;10.90;67.90;;;;;;5047198;28;20108;-67
2021/10/11 02:08:59;;;;;;;17.42;14.00;;;10.90;68.20;;;;;;5046309;28;20043;-67
2021/10/11 02:11:25;;;;;;;16.90;12.95;;;10.90;68.50;;;;;;5044729;28;20041;-67
2021/10/11 02:13:51;;;;;;;16.55;12.60;;;10.90;68.50;;;;;;5047381;28;20021;-67
2021/10/11 02:16:16;;;;;;;16.17;12.45;;;10.80;68.30;;;;;;5048236;28;20033;-67
2021/10/11 02:18:42;;;;;;;15.43;12.00;;;10.80;68.10;;;;;;5042697;28;20029;-67
2021/10/11 02:21:08;;;;;;;17.55;13.98;;;10.80;68.20;;;;;;5039667;28;20037;-66
2021/10/11 02:23:34;;;;;;;16.25;12.48;;;10.80;68.30;;;;;;5048092;28;20510;-67
2021/10/11 02:26:00;;;;;;;14.52;11.63;;;10.80;68.50;;;;;;5048691;28;20025;-67
2021/10/11 02:28:26;;;;;;;15.52;11.23;;;10.80;68.80;;;;;;5049244;28;20040;-67
2021/10/11 02:30:51;;;;;;;15.15;11.50;;;10.90;68.80;;;;;;5039499;28;20042;-66
2021/10/11 02:33:17;;;;;;;16.48;12.77;;;10.90;68.50;;;;;;5043816;28;20040;-66
2021/10/11 02:35:43;;;;;;;16.35;12.60;;;10.90;68.50;;;;;;5047607;28;20075;-66
2021/10/11 02:38:08;;;;;;;16.83;12.32;;;10.80;68.50;;;;;;5048772;28;20606;-67
2021/10/11 02:40:36;;;;;;;17.05;12.27;;;10.80;68.30;;;;;;5051865;28;20031;-66
2021/10/11 02:43:02;;;;;;;16.48;12.45;;;10.80;68.30;;;;;;5051045;28;20171;-67
2021/10/11 02:45:28;;;;;;;17.35;11.85;;;10.80;68.10;;;;;;5048732;28;20036;-67
2021/10/11 02:47:54;;;;;;;16.88;12.73;;;10.70;68.20;;;;;;5052609;28;20024;-67
2021/10/11 02:50:20;;;;;;;19.70;13.95;;;10.70;68.30;;;;;;5050115;28;20033;-67
2021/10/11 02:52:47;;;;;;;17.95;13.35;;;10.70;68.50;;;;;;5053960;28;20539;-67
2021/10/11 02:55:13;;;;;;;21.73;14.63;;;10.80;68.70;;;;;;5049969;28;20021;-67
2021/10/11 02:57:38;;;;;;;18.52;14.13;;;10.80;68.90;;;;;;5051796;28;20039;-67
2021/10/11 03:00:06;;;;;;;20.70;14.57;;;10.90;69.00;;;;;;5048351;28;20029;-67
2021/10/11 03:02:31;;;;;;;19.45;13.45;;;11.00;69.00;;;;;;5040545;28;20068;-67
2021/10/11 03:04:57;;;;;;;20.60;13.50;;;11.10;69.20;;;;;;5050696;28;20110;-67
2021/10/11 03:07:23;;;;;;;21.35;15.70;;;11.10;69.30;;;;;;5051331;28;20029;-67
2021/10/11 03:09:49;;;;;;;21.88;15.18;;;11.20;69.30;;;;;;5050992;28;20037;-67
2021/10/11 03:12:14;;;;;;;22.55;16.05;;;11.30;69.50;;;;;;5050269;28;20021;-67
2021/10/11 03:14:40;;;;;;;18.63;13.02;;;11.30;69.70;;;;;;5039215;28;20554;-67
2021/10/11 03:17:06;;;;;;;18.20;13.30;;;11.30;69.90;;;;;;5051977;28;20025;-67
2021/10/11 03:19:32;;;;;;;18.33;12.82;;;11.40;70.20;;;;;;5047434;28;20088;-67
2021/10/11 03:21:57;;;;;;;20.65;14.52;;;11.40;70.30;;;;;;5050666;28;21587;-67
2021/10/11 03:24:23;;;;;;;25.77;17.17;;;11.40;70.40;;;;;;5051377;28;20037;-67
2021/10/11 03:26:49;;;;;;;33.60;19.30;;;11.50;70.60;;;;;;5049015;28;20029;-67
2021/10/11 03:29:15;;;;;;;30.77;16.90;;;11.50;70.80;;;;;;5050193;28;20104;-67
2021/10/11 03:31:40;;;;;;;35.13;18.42;;;11.60;71.20;;;;;;5037610;28;20049;-67
2021/10/11 03:34:06;;;;;;;50.20;21.35;;;11.60;71.20;;;;;;5048524;28;20032;-67
2021/10/11 03:36:33;;;;;;;45.78;20.45;;;11.70;71.40;;;;;;5044450;28;20022;-67
2021/10/11 03:38:59;;;;;;;45.22;21.17;;;11.70;71.50;;;;;;5046648;28;20064;-67
2021/10/11 03:41:25;;;;;;;34.90;19.48;;;11.70;71.60;;;;;;5050512;28;20460;-67
2021/10/11 03:43:51;;;;;;;41.97;19.90;;;11.70;71.70;;;;;;5043079;28;20095;-67
2021/10/11 03:46:17;;;;;;;43.22;20.17;;;11.70;71.70;;;;;;5049982;28;20021;-67
2021/10/11 03:48:42;;;;;;;71.85;24.33;;;11.70;71.80;;;;;;5047234;28;20848;-67
2021/10/11 03:51:08;;;;;;;95.05;26.60;;;11.70;72.10;;;;;;5050865;28;20438;-67
2021/10/11 03:53:34;;;;;;;104.65;28.75;;;11.60;72.50;;;;;;5049825;28;20399;-67
2021/10/11 03:56:02;;;;;;;143.65;29.70;;;11.70;72.70;;;;;;5049853;28;20033;-67
2021/10/11 03:58:28;;;;;;;238.98;30.23;;;11.70;73.00;;;;;;5044088;28;20117;-67
2021/10/11 04:00:54;;;;;;;298.33;31.00;;;11.70;73.50;;;;;;5047495;28;20105;-67
2021/10/11 04:03:19;;;;;;;193.75;29.17;;;11.70;74.00;;;;;;5049057;28;20044;-67
2021/10/11 04:05:45;;;;;;;173.40;29.52;;;11.80;74.00;;;;;;5051087;28;20025;-67
2021/10/11 04:08:17;;;;;;;396.75;30.52;;;11.80;74.00;;;;;;5035247;28;20411;-67
2021/10/11 04:13:21;;;;;;;130.13;28.98;;;11.80;74.30;;;;;;5045202;28;20029;-67
2021/10/11 04:15:48;;;;;;;248.27;30.25;;;11.70;74.50;;;;;;5050157;28;20037;-67
2021/10/11 04:18:15;;;;;;;184.02;29.27;;;11.70;74.80;;;;;;5049687;28;20632;-67
2021/10/11 04:20:41;;;;;;;242.45;28.20;;;11.70;74.90;;;;;;5042125;28;20118;-67
2021/10/11 04:23:07;;;;;;;158.65;29.33;;;11.70;75.00;;;;;;5047589;28;20148;-65
2021/10/11 04:25:32;;;;;;;156.85;28.20;;;11.70;75.00;;;;;;5051322;28;20029;-66
2021/10/11 04:27:58;;;;;;;138.80;26.23;;;11.70;74.80;;;;;;5045992;28;20024;-66
2021/10/11 04:30:24;;;;;;;89.40;26.17;;;11.60;74.70;;;;;;5046225;28;20049;-66
2021/10/11 04:32:50;;;;;;;167.85;27.10;;;11.60;74.70;;;;;;5049474;28;20128;-66
2021/10/11 04:35:15;;;;;;;181.15;25.20;;;11.60;74.80;;;;;;5050334;28;20028;-66
2021/10/11 04:37:42;;;;;;;154.68;27.08;;;11.60;74.70;;;;;;5052876;28;20059;-66
2021/10/11 04:40:09;;;;;;;285.83;27.38;;;11.60;74.60;;;;;;5047125;28;20088;-66
2021/10/11 04:42:35;;;;;;;73.68;25.95;;;11.60;74.50;;;;;;5048875;28;20098;-67
2021/10/11 04:45:01;;;;;;;71.78;25.67;;;11.50;74.50;;;;;;5038382;28;20506;-67
2021/10/11 04:47:27;;;;;;;98.63;26.48;;;11.50;74.80;;;;;;5049239;28;20032;-67
2021/10/11 04:49:52;;;;;;;54.75;25.48;;;11.50;75.00;;;;;;5017042;28;20488;-66
2021/10/11 04:52:18;;;;;;;78.70;25.40;;;11.50;75.20;;;;;;5050416;28;20107;-65
2021/10/11 04:54:44;;;;;;;206.02;26.77;;;11.50;75.20;;;;;;5050944;28;20060;-66
2021/10/11 04:57:09;;;;;;;125.53;25.52;;;11.60;75.20;;;;;;5049291;28;20036;-67
2021/10/11 04:59:36;;;;;;;148.98;27.02;;;11.70;75.10;;;;;;5048378;28;20074;-67
2021/10/11 05:02:01;;;;;;;52.13;25.45;;;11.70;75.10;;;;;;5049279;28;20072;-67
2021/10/11 05:04:27;;;;;;;36.60;22.98;;;11.80;75.00;;;;;;5037970;28;20075;-66
2021/10/11 05:06:53;;;;;;;46.22;24.90;;;11.80;75.10;;;;;;5042280;28;20063;-66
2021/10/11 05:09:19;;;;;;;49.80;23.77;;;11.80;75.00;;;;;;5045314;28;20025;-66
2021/10/11 05:11:44;;;;;;;36.45;23.63;;;11.80;75.00;;;;;;5050022;28;20032;-66
2021/10/11 05:14:10;;;;;;;38.58;23.75;;;11.80;75.00;;;;;;5049252;28;20013;-66
2021/10/11 05:16:37;;;;;;;34.22;22.88;;;11.70;75.00;;;;;;5048178;28;20029;-66
2021/10/11 05:19:03;;;;;;;32.92;22.55;;;11.70;75.00;;;;;;5049713;28;20033;-67
2021/10/11 05:21:30;;;;;;;32.45;23.25;;;11.70;75.30;;;;;;5045361;28;20045;-66
2021/10/11 05:23:57;;;;;;;38.60;22.67;;;11.70;75.20;;;;;;5046189;28;20029;-66
2021/10/11 05:26:22;;;;;;;31.45;22.60;;;11.70;75.30;;;;;;5049776;28;20450;-67
2021/10/11 05:28:48;;;;;;;34.13;22.05;;;11.60;75.20;;;;;;5049928;28;20120;-67
2021/10/11 05:31:14;;;;;;;31.23;21.98;;;11.60;75.20;;;;;;5049104;28;20041;-67
2021/10/11 05:33:40;;;;;;;29.83;21.83;;;11.60;75.20;;;;;;5032264;28;20064;-67
2021/10/11 05:36:07;;;;;;;31.38;21.60;;;11.50;75.30;;;;;;5044665;28;20027;-67
2021/10/11 05:38:36;;;;;;;30.55;21.80;;;11.50;75.40;;;;;;5047983;28;20555;-67
2021/10/11 05:41:02;;;;;;;28.85;20.58;;;11.50;75.10;;;;;;5048985;28;20028;-67
2021/10/11 05:43:28;;;;;;;32.90;20.55;;;11.50;75.00;;;;;;5050714;28;20079;-67
2021/10/11 05:45:54;;;;;;;32.40;21.58;;;11.50;75.70;;;;;;5046209;28;20434;-66
2021/10/11 05:48:19;;;;;;;29.50;21.10;;;11.50;74.60;;;;;;5042100;28;20033;-67
2021/10/11 05:50:45;;;;;;;29.88;21.67;;;11.40;74.40;;;;;;5042585;28;20032;-66
2021/10/11 05:53:12;;;;;;;32.40;21.98;;;11.40;74.50;;;;;;5035571;28;20056;-67
2021/10/11 05:55:38;;;;;;;30.00;21.10;;;11.40;74.60;;;;;;5050188;28;20031;-67
2021/10/11 05:58:04;;;;;;;29.55;20.92;;;11.40;74.70;;;;;;5038557;28;20038;-66
2021/10/11 06:00:32;;;;;;;26.55;19.88;;;11.40;74.70;;;;;;5037367;28;20032;-66
2021/10/11 06:02:58;;;;;;;25.45;18.90;;;11.50;75.00;;;;;;5037845;28;20392;-67
2021/10/11 06:05:23;;;;;;;29.92;19.95;;;11.50;74.90;;;;;;5038805;28;20029;-67
2021/10/11 06:07:49;;;;;;;31.42;20.08;;;11.60;74.90;;;;;;5040510;28;20029;-66
2021/10/11 06:10:15;;;;;;;27.75;19.55;;;11.60;74.80;;;;;;5043387;28;20484;-67
2021/10/11 06:12:42;;;;;;;38.08;20.45;;;11.70;74.80;;;;;;5038088;28;20086;-67
2021/10/11 06:15:08;;;;;;;39.67;19.48;;;11.70;74.70;;;;;;5043949;28;20107;-66
2021/10/11 06:17:34;;;;;;;50.63;21.10;;;11.70;74.80;;;;;;5053319;28;20112;-67
2021/10/11 06:20:00;;;;;;;56.78;22.00;;;11.70;74.80;;;;;;5050974;28;20477;-67
2021/10/11 06:22:26;;;;;;;40.25;21.77;;;11.80;74.90;;;;;;5053381;28;20065;-67
2021/10/11 06:24:51;;;;;;;48.63;22.15;;;11.80;75.00;;;;;;5044383;28;20033;-67
2021/10/11 06:27:17;;;;;;;43.17;21.63;;;11.90;75.10;;;;;;5045535;28;20499;-67
2021/10/11 06:29:43;;;;;;;59.72;22.95;;;11.90;75.20;;;;;;5040303;28;20053;-67
2021/10/11 06:32:09;;;;;;;66.18;23.10;;;11.90;75.30;;;;;;5036988;28;20400;-67
2021/10/11 06:34:34;;;;;;;60.17;22.70;;;12.00;75.40;;;;;;5046616;28;20029;-67
2021/10/11 06:37:00;;;;;;;42.50;21.55;;;12.00;75.40;;;;;;5046708;28;20499;-67
2021/10/11 06:39:26;;;;;;;49.47;22.33;;;12.10;75.50;;;;;;5051901;28;20025;-67
2021/10/11 06:41:52;;;;;;;45.65;21.85;;;12.10;75.60;;;;;;5052407;28;20076;-67
2021/10/11 06:44:17;;;;;;;86.85;23.30;;;12.20;76.60;;;;;;5037152;28;20582;-66
2021/10/11 06:46:43;;;;;;;74.63;23.45;;;12.20;75.50;;;;;;5050066;28;20025;-67
2021/10/11 06:49:09;;;;;;;48.40;22.85;;;12.30;75.70;;;;;;5048203;28;20621;-66
2021/10/11 06:51:34;;;;;;;47.95;23.30;;;12.40;75.90;;;;;;5027854;28;20028;-66
2021/10/11 06:54:00;;;;;;;69.15;23.85;;;12.40;75.90;;;;;;5047102;28;20029;-67
2021/10/11 06:56:26;;;;;;;51.20;22.83;;;12.50;76.90;;;;;;5038221;28;20025;-67
2021/10/11 06:58:52;;;;;;;50.38;23.05;;;12.60;76.00;;;;;;5051547;28;20032;-67
2021/10/11 07:01:17;;;;;;;63.10;23.38;;;12.60;76.00;;;;;;5042289;28;20045;-67
2021/10/11 07:03:43;;;;;;;68.43;23.88;;;12.70;75.90;;;;;;5050573;28;20025;-67
2021/10/11 07:06:18;;;;;;;213.93;26.60;;;12.80;76.20;;;;;;5052218;28;20037;-67
2021/10/11 07:08:44;;;;;;;147.00;25.60;;;12.90;76.30;;;;;;5050535;28;20522;-67
2021/10/11 07:11:10;;;;;;;256.38;27.38;;;13.00;76.40;;;;;;5051844;28;20037;-67
2021/10/11 07:13:36;;;;;;;121.47;25.15;;;13.00;76.50;;;;;;5053164;28;20029;-67
2021/10/11 07:16:03;;;;;;;138.05;26.13;;;13.10;76.60;;;;;;5051828;28;20025;-67
2021/10/11 07:18:35;;;;;;;99.65;26.40;;;13.20;77.70;;;;;;5047386;28;20025;-67
2021/10/11 07:21:03;;;;;;;89.70;28.10;;;13.20;77.00;;;;;;5049429;28;20083;-67
2021/10/11 07:23:29;;;;;;;99.60;28.73;;;13.30;77.50;;;;;;5052004;28;20037;-67
2021/10/11 07:25:56;;;;;;;81.90;25.23;;;13.30;77.60;;;;;;5050761;28;20453;-67
2021/10/11 07:28:22;;;;;;;85.43;27.08;;;13.40;78.00;;;;;;5052178;28;20040;-67
2021/10/11 07:30:48;;;;;;;53.17;24.63;;;13.40;78.10;;;;;;5049005;28;20037;-67
2021/10/11 07:33:14;;;;;;;47.58;23.60;;;13.50;78.30;;;;;;5045732;28;20025;-67
2021/10/11 07:35:39;;;;;;;61.38;25.63;;;13.60;79.10;;;;;;5051091;28;20036;-67
2021/10/11 07:38:05;;;;;;;55.17;24.15;;;13.70;79.10;;;;;;5050818;28;20039;-67
2021/10/11 07:40:31;;;;;;;49.25;23.90;;;13.90;78.60;;;;;;5044099;28;20026;-67
2021/10/11 07:42:57;;;;;;;41.22;23.20;;;14.10;78.10;;;;;;5048471;28;20492;-67
2021/10/11 07:45:23;;;;;;;48.78;23.35;;;14.30;77.40;;;;;;5051958;28;20040;-67
2021/10/11 07:47:49;;;;;;;42.92;23.13;;;14.60;77.10;;;;;;5044151;28;20487;-67
2021/10/11 07:50:15;;;;;;;35.83;22.25;;;14.70;76.70;;;;;;5036477;28;20017;-67
2021/10/11 07:52:41;;;;;;;34.15;22.33;;;14.90;76.50;;;;;;5040408;28;20484;-67
2021/10/11 07:55:07;;;;;;;34.65;22.23;;;15.00;76.30;;;;;;5039806;28;20606;-67
2021/10/11 07:57:33;;;;;;;39.15;23.40;;;15.10;76.20;;;;;;5043807;28;20121;-67
2021/10/11 08:00:00;;;;;;;35.90;22.73;;;15.30;76.40;;;;;;5040883;28;20028;-67
2021/10/11 08:02:26;;;;;;;38.88;23.25;;;15.50;75.70;;;;;;5036494;28;20036;-67
2021/10/11 08:04:52;;;;;;;32.58;21.60;;;15.70;75.40;;;;;;5048573;28;20399;-67
2021/10/11 08:07:17;;;;;;;34.25;22.38;;;15.80;74.70;;;;;;5051515;28;20037;-67
2021/10/11 08:09:43;;;;;;;27.25;19.98;;;16.60;73.50;;;;;;5049614;28;20034;-67
2021/10/11 08:12:10;;;;;;;26.63;19.98;;;17.60;70.80;;;;;;5051436;28;20037;-67
2021/10/11 08:14:36;;;;;;;26.85;19.27;;;18.80;68.50;;;;;;5048012;28;20404;-68
2021/10/11 08:17:02;;;;;;;25.02;18.65;;;19.40;66.00;;;;;;5034663;28;20495;-67
2021/10/11 08:19:28;;;;;;;23.00;18.33;;;20.30;63.90;;;;;;5041830;28;20025;-67
2021/10/11 08:21:54;;;;;;;22.30;17.98;;;21.70;60.90;;;;;;5039256;28;20103;-68
2021/10/11 08:24:19;;;;;;;23.17;18.05;;;22.80;58.10;;;;;;5039303;28;20025;-68
2021/10/11 08:26:45;;;;;;;22.90;18.73;;;23.90;55.30;;;;;;5039202;28;20110;-68
2021/10/11 08:29:11;;;;;;;21.83;18.17;;;24.90;52.70;;;;;;5032816;28;20025;-68
2021/10/11 08:31:37;;;;;;;21.63;17.30;;;25.60;50.90;;;;;;5036234;28;20069;-68
2021/10/11 08:34:03;;;;;;;21.92;17.38;;;26.40;48.60;;;;;;5036769;28;20026;-68
2021/10/11 08:36:29;;;;;;;20.45;17.23;;;27.10;46.90;;;;;;5039207;28;20087;-69
2021/10/11 08:38:55;;;;;;;19.48;16.08;;;27.60;45.10;;;;;;5038545;28;20024;-68
2021/10/11 08:41:21;;;;;;;19.27;16.27;;;27.70;44.10;;;;;;5050339;28;20439;-68
2021/10/11 08:43:47;;;;;;;19.85;16.90;;;27.70;43.30;;;;;;5049080;28;20021;-68
2021/10/11 08:46:13;;;;;;;19.38;16.60;;;27.40;42.80;;;;;;5039305;28;20510;-68
2021/10/11 08:48:39;;;;;;;19.00;16.50;;;27.60;42.10;;;;;;5038299;28;20033;-68
2021/10/11 08:51:07;;;;;;;19.52;15.32;;;28.40;41.50;;;;;;5049573;28;20487;-69
2021/10/11 08:53:34;;;;;;;18.83;15.10;;;29.20;40.50;;;;;;5049246;28;20048;-69
2021/10/11 08:56:00;;;;;;;16.92;15.10;;;29.90;39.80;;;;;;5034663;28;20515;-68
2021/10/11 08:58:26;;;;;;;16.83;15.00;;;30.20;38.80;;;;;;5032155;28;20033;-69
2021/10/11 09:00:52;;;;;;;19.02;13.82;;;30.90;37.10;;;;;;5049862;28;20051;-69
2021/10/11 09:03:21;;;;;;;16.38;13.45;;;31.00;36.70;;;;;;5045587;28;20487;-69
2021/10/11 09:05:48;;;;;;;16.80;13.98;;;31.70;35.60;;;;;;5038581;28;20434;-69
2021/10/11 09:08:16;;;;;;;15.80;14.10;;;32.20;34.10;;;;;;5039449;28;20029;-69
2021/10/11 09:10:56;;;;;;;16.92;13.40;;;32.70;33.20;;;;;;5049517;28;20568;-69
2021/10/11 09:13:31;;;;;;;14.80;13.18;;;33.00;31.60;;;;;;5049167;28;20049;-69
2021/10/11 09:16:07;;;;;;;16.80;13.25;;;33.40;31.40;;;;;;5040279;28;20484;-69
2021/10/11 09:18:36;;;;;;;15.20;12.82;;;33.40;30.60;;;;;;5043691;28;20033;-69
2021/10/11 09:21:02;;;;;;;15.55;13.77;;;33.40;31.00;;;;;;5042483;28;20543;-69
2021/10/11 09:23:30;;;;;;;16.02;13.18;;;33.50;31.30;;;;;;5035138;28;20147;-69
2021/10/11 09:25:57;;;;;;;17.10;13.00;;;34.60;30.40;;;;;;5035554;28;20021;-69
2021/10/11 09:28:25;;;;;;;17.45;11.70;;;35.30;29.50;;;;;;5042616;28;20027;-69
2021/10/11 09:30:51;;;;;;;14.18;11.15;;;35.90;28.80;;;;;;5049357;28;20060;-69
2021/10/11 09:33:21;;;;;;;13.25;11.30;;;36.30;28.60;;;;;;5048758;28;20070;-69
2021/10/11 09:35:50;;;;;;;12.57;10.50;;;36.20;28.40;;;;;;5049422;28;20419;-69
2021/10/11 09:38:20;;;;;;;15.15;11.02;;;36.60;27.60;;;;;;5033571;28;20064;-69
2021/10/11 09:40:47;;;;;;;13.63;10.68;;;37.10;27.20;;;;;;5046850;28;20037;-69
2021/10/11 09:43:15;;;;;;;11.30;9.80;;;37.30;27.20;;;;;;5045417;28;20041;-69
2021/10/11 09:45:41;;;;;;;11.50;8.45;;;35.90;27.20;;;;;;5038153;28;20045;-69
2021/10/11 09:48:08;;;;;;;13.55;8.75;;;34.00;28.30;;;;;;5039338;28;20083;-69
2021/10/11 09:50:34;;;;;;;11.68;9.00;;;32.50;30.00;;;;;;5043274;28;20036;-69
2021/10/11 09:53:02;;;;;;;13.68;9.60;;;31.50;31.30;;;;;;5049476;28;20107;-69
2021/10/11 09:55:28;;;;;;;11.40;9.50;;;31.10;32.60;;;;;;5035057;28;20037;-70
2021/10/11 09:57:55;;;;;;;14.73;10.32;;;32.70;32.10;;;;;;5039752;28;20026;-69
2021/10/11 10:00:20;;;;;;;11.60;9.40;;;34.30;30.40;;;;;;5039037;28;20025;-70
2021/10/11 10:02:46;;;;;;;11.25;8.75;;;35.80;28.80;;;;;;5041214;28;20060;-70
2021/10/11 10:05:24;;;;;;;12.43;8.40;;;35.60;27.40;;;;;;5047319;28;20013;-70
2021/10/11 10:07:53;;;;;;;11.05;8.27;;;36.40;26.50;;;;;;5046642;28;20060;-70
2021/10/11 10:10:25;;;;;;;9.38;7.65;;;35.70;26.20;;;;;;5048593;28;20109;-70
2021/10/11 10:12:52;;;;;;;9.90;7.70;;;37.80;25.70;;;;;;5048434;28;20036;-70
2021/10/11 10:15:37;;;;;;;10.93;7.57;;;37.80;24.50;;;;;;5044266;28;20056;-69
2021/10/11 10:18:08;;;;;;;9.27;6.97;;;37.00;24.40;;;;;;5039651;28;20025;-69
2021/10/11 10:20:37;;;;;;;9.73;6.82;;;37.50;25.70;;;;;;5039097;28;20030;-69
2021/10/11 10:23:04;;;;;;;7.97;6.30;;;38.60;24.50;;;;;;5040429;28;20443;-67
2021/10/11 10:25:30;;;;;;;9.55;6.13;;;39.90;23.50;;;;;;5036913;28;20064;-67
2021/10/11 10:28:11;;;;;;;9.10;6.38;;;37.60;23.40;;;;;;5037500;28;20061;-67
2021/10/11 10:30:37;;;;;;;10.63;6.57;;;39.40;23.50;;;;;;5038679;28;20137;-67
2021/10/11 10:33:06;;;;;;;9.18;6.05;;;40.40;22.50;;;;;;5037035;28;20096;-67
2021/10/11 10:35:35;;;;;;;9.85;5.47;;;40.80;22.40;;;;;;5048649;28;20036;-67
2021/10/11 10:38:01;;;;;;;9.70;5.70;;;40.10;21.20;;;;;;5015185;28;20041;-67
2021/10/11 10:40:32;;;;;;;7.90;5.10;;;40.70;22.10;;;;;;5045512;28;20043;-67
2021/10/11 10:43:10;;;;;;;9.35;5.95;;;41.90;21.50;;;;;;5039286;28;20076;-67
2021/10/11 10:45:37;;;;;;;9.13;6.53;;;40.40;22.30;;;;;;5043051;28;20035;-67
2021/10/11 10:48:25;;;;;;;9.48;5.30;;;41.00;21.90;;;;;;5048969;28;20029;-68
2021/10/11 10:50:58;;;;;;;8.90;5.10;;;42.30;21.10;;;;;;5044349;28;20056;-67
2021/10/11 10:53:28;;;;;;;7.25;4.38;;;43.70;20.40;;;;;;5033859;28;20029;-67
2021/10/11 10:55:54;;;;;;;7.85;4.55;;;43.40;19.40;;;;;;5033500;28;20041;-68
2021/10/11 10:58:22;;;;;;;6.50;4.30;;;43.40;20.00;;;;;;5048713;28;20029;-67
2021/10/11 11:00:48;;;;;;;7.18;4.30;;;39.90;20.50;;;;;;5041035;28;20040;-66
2021/10/11 11:03:17;;;;;;;8.15;4.13;;;37.40;22.10;;;;;;5042820;28;20029;-67
2021/10/11 11:05:44;;;;;;;8.15;5.13;;;35.60;23.70;;;;;;5052093;28;20484;-66
2021/10/11 11:08:11;;;;;;;7.93;4.32;;;34.20;25.60;;;;;;5041909;28;20434;-67
2021/10/11 11:10:39;;;;;;;8.27;4.35;;;35.20;25.40;;;;;;5052301;28;20059;-67
2021/10/11 11:13:13;;;;;;;8.13;3.33;;;36.50;25.10;;;;;;5041854;28;20116;-67
2021/10/11 11:15:42;;;;;;;6.47;3.70;;;38.40;23.00;;;;;;5045150;28;20084;-67
2021/10/11 11:18:16;;;;;;;6.38;3.40;;;40.90;21.70;;;;;;5041380;28;20068;-67
2021/10/11 11:20:43;;;;;;;5.07;2.88;;;40.90;19.90;;;;;;5048710;28;20021;-67
2021/10/11 11:23:21;;;;;;;6.80;3.00;;;42.60;20.20;;;;;;5050752;28;20037;-67
2021/10/11 11:25:49;;;;;;;6.57;2.90;;;44.30;18.70;;;;;;5048479;28;20498;-67
2021/10/11 11:28:23;;;;;;;7.90;3.17;;;41.00;18.30;;;;;;5051115;28;20128;-68
2021/10/11 11:30:54;;;;;;;5.20;2.70;;;43.40;18.60;;;;;;5042433;28;20048;-68
2021/10/11 11:33:22;;;;;;;5.00;2.30;;;44.50;17.80;;;;;;5040125;28;20036;-68
2021/10/11 11:35:53;;;;;;;4.80;2.50;;;45.50;17.00;;;;;;5041225;28;20534;-68
2021/10/11 11:38:22;;;;;;;5.32;2.13;;;46.30;16.60;;;;;;5036042;28;20021;-68
2021/10/11 11:40:52;;;;;;;11.35;2.22;;;44.40;15.90;;;;;;5045470;28;20043;-68
2021/10/11 11:43:18;;;;;;;7.38;3.20;;;41.60;17.70;;;;;;5050537;28;20052;-67
2021/10/11 11:45:47;;;;;;;7.00;3.13;;;38.90;20.00;;;;;;5050919;28;20569;-67
2021/10/11 11:48:21;;;;;;;6.72;2.70;;;36.80;22.00;;;;;;5045335;28;20031;-66
2021/10/11 11:50:50;;;;;;;6.18;2.70;;;35.80;23.20;;;;;;5036716;28;20032;-67
2021/10/11 11:53:19;;;;;;;5.53;2.17;;;37.70;22.40;;;;;;5046537;28;20044;-67
2021/10/11 11:55:47;;;;;;;5.88;2.20;;;38.40;21.30;;;;;;5048139;28;20036;-67
2021/10/11 11:58:15;;;;;;;5.85;2.30;;;40.00;21.40;;;;;;5047221;28;20029;-67
2021/10/11 12:00:52;;;;;;;7.03;2.17;;;38.10;20.60;;;;;;5050590;28;20032;-67
2021/10/11 12:03:19;;;;;;;5.13;2.20;;;40.00;20.70;;;;;;5048678;28;20029;-67
2021/10/11 12:05:49;;;;;;;6.05;2.25;;;40.60;19.20;;;;;;5051199;28;20033;-67
2021/10/11 12:08:15;;;;;;;7.75;2.35;;;42.00;19.00;;;;;;5045962;28;20108;-67
2021/10/11 12:10:42;;;;;;;5.18;1.90;;;43.50;17.70;;;;;;5036905;28;20158;-68
2021/10/11 12:13:08;;;;;;;4.72;2.03;;;44.90;17.20;;;;;;5039144;28;20034;-68
2021/10/11 12:15:34;;;;;;;3.75;1.70;;;45.60;15.70;;;;;;5044183;28;20489;-68
2021/10/11 12:18:10;;;;;;;6.70;1.77;;;46.30;15.10;;;;;;5048543;28;20028;-68
2021/10/11 12:20:48;;;;;;;5.25;1.65;;;46.80;14.70;;;;;;5035191;28;20036;-68
2021/10/11 12:23:15;;;;;;;5.10;1.83;;;45.70;13.80;;;;;;5038676;28;20037;-68
2021/10/11 12:25:42;;;;;;;8.77;2.20;;;42.40;15.50;;;;;;5043886;28;20032;-67
2021/10/11 12:28:16;;;;;;;7.97;1.90;;;41.10;17.20;;;;;;5040308;28;20032;-67
2021/10/11 12:30:48;;;;;;;6.80;2.00;;;42.20;18.00;;;;;;5018850;28;20054;-67
2021/10/11 12:33:18;;;;;;;5.03;1.83;;;42.20;16.20;;;;;;5019457;28;20034;-67